sensor_id;sensor_type;location;lat;lon;timestamp;temperature;humidity
25154;DHT22;47555;51.038;6.280;2022-11-18T00:01:29;9.60;99.90
25154;DHT22;47555;51.038;6.280;2022-11-18T00:03:55;9.60;99.90
25154;DHT22;47555;51.038;6.280;2022-11-18T00:06:23;9.60;99.90
25154;DHT22;47555;51.038;6.280;2022-11-18T00:08:50;9.70;99.90
25154;DHT22;47555;51.038;6.280;2022-11-18T00:11:18;9.70;99.90
25154;DHT22;47555;51.038;6.280;2022-11-18T00:14:04;9.70;99.90
25154;DHT22;47555;51.038;6.280;2022-11-18T00:16:48;9.70;99.90
25154;DHT22;47555;51.038;6.280;2022-11-18T00:19:15;9.70;99.90
25154;DHT22;47555;51.038;6.280;2022-11-18T00:21:41;9.70;99.90
25154;DHT22;47555;51.038;6.280;2022-11-18T00:24:06;9.70;99.90
25154;DHT22;47555;51.038;6.280;2022-11-18T00:26:32;9.70;99.90
25154;DHT22;47555;51.038;6.280;2022-11-18T00:28:57;9.70;99.90
25154;DHT22;47555;51.038;6.280;2022-11-18T00:31:23;9.70;99.90
25154;DHT22;47555;51.038;6.280;2022-11-18T00:33:48;9.70;99.90
25154;DHT22;47555;51.038;6.280;2022-11-18T00:36:14;9.70;99.90
25154;DHT22;47555;51.038;6.280;2022-11-18T00:38:40;9.70;99.90
25154;DHT22;47555;51.038;6.280;2022-11-18T00:41:11;9.60;99.90
25154;DHT22;47555;51.038;6.280;2022-11-18T00:43:37;9.70;99.90
25154;DHT22;47555;51.038;6.280;2022-11-18T00:46:04;9.60;99.90
25154;DHT22;47555;51.038;6.280;2022-11-18T00:48:30;9.60;99.90
25154;DHT22;47555;51.038;6.280;2022-11-18T00:50:57;9.70;99.90
25154;DHT22;47555;51.038;6.280;2022-11-18T00:53:25;9.60;99.90
25154;DHT22;47555;51.038;6.280;2022-11-18T00:55:52;9.60;99.90
25154;DHT22;47555;51.038;6.280;2022-11-18T00:58:18;9.60;99.90
25154;DHT22;47555;51.038;6.280;2022-11-18T01:00:45;9.50;99.90
25154;DHT22;47555;51.038;6.280;2022-11-18T01:03:12;9.50;99.90
25154;DHT22;47555;51.038;6.280;2022-11-18T01:05:38;9.50;99.90
25154;DHT22;47555;51.038;6.280;2022-11-18T01:08:06;9.40;99.90
25154;DHT22;47555;51.038;6.280;2022-11-18T01:10:32;9.40;99.90
25154;DHT22;47555;51.038;6.280;2022-11-18T01:12:57;9.30;99.90
25154;DHT22;47555;51.038;6.280;2022-11-18T01:15:43;9.30;99.90
25154;DHT22;47555;51.038;6.280;2022-11-18T01:18:09;9.30;99.90
25154;DHT22;47555;51.038;6.280;2022-11-18T01:20:35;9.20;99.90
25154;DHT22;47555;51.038;6.280;2022-11-18T01:23:01;9.20;99.90
25154;DHT22;47555;51.038;6.280;2022-11-18T01:25:28;9.20;99.90
25154;DHT22;47555;51.038;6.280;2022-11-18T01:27:54;9.10;99.90
25154;DHT22;47555;51.038;6.280;2022-11-18T01:30:21;9.10;99.90
25154;DHT22;47555;51.038;6.280;2022-11-18T01:32:46;9.10;99.90
25154;DHT22;47555;51.038;6.280;2022-11-18T01:35:12;9.10;99.90
25154;DHT22;47555;51.038;6.280;2022-11-18T01:37:38;9.10;99.90
25154;DHT22;47555;51.038;6.280;2022-11-18T01:40:06;9.10;99.90
25154;DHT22;47555;51.038;6.280;2022-11-18T01:42:31;9.10;99.90
25154;DHT22;47555;51.038;6.280;2022-11-18T01:45:03;9.10;99.90
25154;DHT22;47555;51.038;6.280;2022-11-18T01:47:42;9.00;99.90
25154;DHT22;47555;51.038;6.280;2022-11-18T01:50:10;9.00;99.90
25154;DHT22;47555;51.038;6.280;2022-11-18T01:52:38;9.00;99.90
25154;DHT22;47555;51.038;6.280;2022-11-18T01:55:12;9.00;99.90
25154;DHT22;47555;51.038;6.280;2022-11-18T01:57:40;9.00;99.90
25154;DHT22;47555;51.038;6.280;2022-11-18T02:00:07;9.00;99.90
25154;DHT22;47555;51.038;6.280;2022-11-18T02:02:35;9.00;99.90
25154;DHT22;47555;51.038;6.280;2022-11-18T02:05:02;8.90;99.90
25154;DHT22;47555;51.038;6.280;2022-11-18T02:07:28;8.90;99.90
25154;DHT22;47555;51.038;6.280;2022-11-18T02:09:54;8.90;99.90
25154;DHT22;47555;51.038;6.280;2022-11-18T02:12:22;8.90;99.90
25154;DHT22;47555;51.038;6.280;2022-11-18T02:14:48;8.80;99.90
25154;DHT22;47555;51.038;6.280;2022-11-18T02:23:28;8.80;99.90
25154;DHT22;47555;51.038;6.280;2022-11-18T02:26:32;8.80;99.90
25154;DHT22;47555;51.038;6.280;2022-11-18T02:29:16;8.70;99.90
25154;DHT22;47555;51.038;6.280;2022-11-18T02:32:09;8.70;99.90
25154;DHT22;47555;51.038;6.280;2022-11-18T02:34:41;8.70;99.90
25154;DHT22;47555;51.038;6.280;2022-11-18T02:37:21;8.60;99.90
25154;DHT22;47555;51.038;6.280;2022-11-18T02:42:25;8.60;99.90
25154;DHT22;47555;51.038;6.280;2022-11-18T02:44:57;8.60;99.90
25154;DHT22;47555;51.038;6.280;2022-11-18T02:47:26;8.60;99.90
25154;DHT22;47555;51.038;6.280;2022-11-18T02:49:57;8.60;99.90
25154;DHT22;47555;51.038;6.280;2022-11-18T02:52:26;8.60;99.90
25154;DHT22;47555;51.038;6.280;2022-11-18T02:54:52;8.60;99.90
25154;DHT22;47555;51.038;6.280;2022-11-18T02:57:20;8.60;99.90
25154;DHT22;47555;51.038;6.280;2022-11-18T02:59:46;8.60;99.90
25154;DHT22;47555;51.038;6.280;2022-11-18T03:02:17;8.60;99.90
25154;DHT22;47555;51.038;6.280;2022-11-18T03:04:45;8.50;99.90
25154;DHT22;47555;51.038;6.280;2022-11-18T03:09:46;8.60;99.90
25154;DHT22;47555;51.038;6.280;2022-11-18T03:12:37;8.50;99.90
25154;DHT22;47555;51.038;6.280;2022-11-18T03:15:23;8.60;99.90
25154;DHT22;47555;51.038;6.280;2022-11-18T03:20:57;8.60;99.90
25154;DHT22;47555;51.038;6.280;2022-11-18T03:23:43;8.60;99.90
25154;DHT22;47555;51.038;6.280;2022-11-18T03:26:20;8.70;99.90
25154;DHT22;47555;51.038;6.280;2022-11-18T03:31:40;8.80;99.90
25154;DHT22;47555;51.038;6.280;2022-11-18T03:37:00;8.80;99.90
25154;DHT22;47555;51.038;6.280;2022-11-18T03:39:29;8.90;99.90
25154;DHT22;47555;51.038;6.280;2022-11-18T03:42:03;8.90;99.90
25154;DHT22;47555;51.038;6.280;2022-11-18T03:44:35;8.90;99.90
25154;DHT22;47555;51.038;6.280;2022-11-18T03:47:05;9.00;99.90
25154;DHT22;47555;51.038;6.280;2022-11-18T03:49:42;9.00;99.90
25154;DHT22;47555;51.038;6.280;2022-11-18T03:52:21;9.00;99.90
25154;DHT22;47555;51.038;6.280;2022-11-18T03:54:51;9.00;99.90
25154;DHT22;47555;51.038;6.280;2022-11-18T03:57:41;9.00;99.90
25154;DHT22;47555;51.038;6.280;2022-11-18T04:00:10;9.00;99.90
25154;DHT22;47555;51.038;6.280;2022-11-18T04:02:36;9.00;99.90
25154;DHT22;47555;51.038;6.280;2022-11-18T04:05:03;9.00;99.90
25154;DHT22;47555;51.038;6.280;2022-11-18T04:07:36;9.00;99.90
25154;DHT22;47555;51.038;6.280;2022-11-18T04:10:15;9.00;99.90
25154;DHT22;47555;51.038;6.280;2022-11-18T04:13:44;9.00;99.90
25154;DHT22;47555;51.038;6.280;2022-11-18T04:15:40;9.00;99.90
25154;DHT22;47555;51.038;6.280;2022-11-18T04:18:06;8.90;99.90
25154;DHT22;47555;51.038;6.280;2022-11-18T04:20:32;8.90;99.90
25154;DHT22;47555;51.038;6.280;2022-11-18T04:22:58;8.90;99.90
25154;DHT22;47555;51.038;6.280;2022-11-18T04:25:24;8.90;99.90
25154;DHT22;47555;51.038;6.280;2022-11-18T04:27:50;8.90;99.90
25154;DHT22;47555;51.038;6.280;2022-11-18T04:30:16;8.90;99.90
25154;DHT22;47555;51.038;6.280;2022-11-18T04:32:42;8.90;99.90
25154;DHT22;47555;51.038;6.280;2022-11-18T04:35:07;8.90;99.90
25154;DHT22;47555;51.038;6.280;2022-11-18T04:37:33;8.90;99.90
25154;DHT22;47555;51.038;6.280;2022-11-18T04:39:59;8.90;99.90
25154;DHT22;47555;51.038;6.280;2022-11-18T04:42:25;8.90;99.90
25154;DHT22;47555;51.038;6.280;2022-11-18T04:44:50;8.90;99.90
25154;DHT22;47555;51.038;6.280;2022-11-18T04:47:16;8.90;99.90
25154;DHT22;47555;51.038;6.280;2022-11-18T04:49:41;8.90;99.90
25154;DHT22;47555;51.038;6.280;2022-11-18T04:52:07;9.00;99.90
25154;DHT22;47555;51.038;6.280;2022-11-18T04:54:32;9.00;99.90
25154;DHT22;47555;51.038;6.280;2022-11-18T04:56:58;9.00;99.90
25154;DHT22;47555;51.038;6.280;2022-11-18T04:59:26;9.00;99.90
25154;DHT22;47555;51.038;6.280;2022-11-18T05:01:52;9.10;99.90
25154;DHT22;47555;51.038;6.280;2022-11-18T05:04:23;9.00;99.90
25154;DHT22;47555;51.038;6.280;2022-11-18T05:06:50;9.00;99.90
25154;DHT22;47555;51.038;6.280;2022-11-18T05:09:16;9.10;99.90
25154;DHT22;47555;51.038;6.280;2022-11-18T05:11:42;9.00;99.90
25154;DHT22;47555;51.038;6.280;2022-11-18T05:14:28;9.00;99.90
25154;DHT22;47555;51.038;6.280;2022-11-18T05:16:55;9.10;99.90
25154;DHT22;47555;51.038;6.280;2022-11-18T05:19:21;9.10;99.90
25154;DHT22;47555;51.038;6.280;2022-11-18T05:21:46;9.00;99.90
25154;DHT22;47555;51.038;6.280;2022-11-18T05:24:12;9.10;99.90
25154;DHT22;47555;51.038;6.280;2022-11-18T05:26:38;9.00;99.90
25154;DHT22;47555;51.038;6.280;2022-11-18T05:29:04;9.10;99.90
25154;DHT22;47555;51.038;6.280;2022-11-18T05:31:29;9.10;99.90
25154;DHT22;47555;51.038;6.280;2022-11-18T05:33:55;9.10;99.90
25154;DHT22;47555;51.038;6.280;2022-11-18T05:36:21;9.00;99.90
25154;DHT22;47555;51.038;6.280;2022-11-18T05:38:48;9.00;99.90
25154;DHT22;47555;51.038;6.280;2022-11-18T05:41:13;9.00;99.90
25154;DHT22;47555;51.038;6.280;2022-11-18T05:44:11;9.00;99.90
25154;DHT22;47555;51.038;6.280;2022-11-18T05:46:36;9.00;99.90
25154;DHT22;47555;51.038;6.280;2022-11-18T05:49:02;9.00;99.90
25154;DHT22;47555;51.038;6.280;2022-11-18T05:51:27;9.00;99.90
25154;DHT22;47555;51.038;6.280;2022-11-18T05:53:54;9.00;99.90
25154;DHT22;47555;51.038;6.280;2022-11-18T05:56:30;9.00;99.90
25154;DHT22;47555;51.038;6.280;2022-11-18T05:58:57;9.00;99.90
25154;DHT22;47555;51.038;6.280;2022-11-18T06:01:51;9.00;99.90
25154;DHT22;47555;51.038;6.280;2022-11-18T06:04:29;9.00;99.90
25154;DHT22;47555;51.038;6.280;2022-11-18T06:07:14;9.00;99.90
25154;DHT22;47555;51.038;6.280;2022-11-18T06:09:44;8.90;99.90
25154;DHT22;47555;51.038;6.280;2022-11-18T06:12:14;8.90;99.90
25154;DHT22;47555;51.038;6.280;2022-11-18T06:14:43;8.90;99.90
25154;DHT22;47555;51.038;6.280;2022-11-18T06:17:16;8.90;99.90
25154;DHT22;47555;51.038;6.280;2022-11-18T06:19:42;8.90;99.90
25154;DHT22;47555;51.038;6.280;2022-11-18T06:22:08;8.90;99.90
25154;DHT22;47555;51.038;6.280;2022-11-18T06:24:34;8.90;99.90
25154;DHT22;47555;51.038;6.280;2022-11-18T06:27:00;8.90;99.90
25154;DHT22;47555;51.038;6.280;2022-11-18T06:29:26;8.80;99.90
25154;DHT22;47555;51.038;6.280;2022-11-18T06:31:52;8.80;99.90
25154;DHT22;47555;51.038;6.280;2022-11-18T06:34:17;8.80;99.90
25154;DHT22;47555;51.038;6.280;2022-11-18T06:36:43;8.80;99.90
25154;DHT22;47555;51.038;6.280;2022-11-18T06:39:08;8.70;99.90
25154;DHT22;47555;51.038;6.280;2022-11-18T06:41:34;8.70;99.90
25154;DHT22;47555;51.038;6.280;2022-11-18T06:44:00;8.60;99.90
25154;DHT22;47555;51.038;6.280;2022-11-18T06:46:26;8.60;99.90
25154;DHT22;47555;51.038;6.280;2022-11-18T06:49:10;8.50;99.90
25154;DHT22;47555;51.038;6.280;2022-11-18T06:51:35;8.50;99.90
25154;DHT22;47555;51.038;6.280;2022-11-18T06:54:01;8.40;99.90
25154;DHT22;47555;51.038;6.280;2022-11-18T06:56:27;8.40;99.90
25154;DHT22;47555;51.038;6.280;2022-11-18T06:58:57;8.30;99.90
25154;DHT22;47555;51.038;6.280;2022-11-18T07:01:24;8.30;99.90
25154;DHT22;47555;51.038;6.280;2022-11-18T07:03:51;8.30;99.90
25154;DHT22;47555;51.038;6.280;2022-11-18T07:06:19;8.20;99.90
25154;DHT22;47555;51.038;6.280;2022-11-18T07:08:45;8.10;99.90
25154;DHT22;47555;51.038;6.280;2022-11-18T07:11:14;8.10;99.90
25154;DHT22;47555;51.038;6.280;2022-11-18T07:13:40;8.10;99.90
25154;DHT22;47555;51.038;6.280;2022-11-18T07:16:08;8.10;99.90
25154;DHT22;47555;51.038;6.280;2022-11-18T07:18:36;8.00;99.90
25154;DHT22;47555;51.038;6.280;2022-11-18T07:21:09;8.00;99.90
25154;DHT22;47555;51.038;6.280;2022-11-18T07:23:35;8.00;99.90
25154;DHT22;47555;51.038;6.280;2022-11-18T07:26:01;7.90;99.90
25154;DHT22;47555;51.038;6.280;2022-11-18T07:28:28;7.90;99.90
25154;DHT22;47555;51.038;6.280;2022-11-18T07:31:19;7.90;99.90
25154;DHT22;47555;51.038;6.280;2022-11-18T07:33:46;7.90;99.90
25154;DHT22;47555;51.038;6.280;2022-11-18T07:36:15;7.90;99.90
25154;DHT22;47555;51.038;6.280;2022-11-18T07:38:41;7.90;99.90
25154;DHT22;47555;51.038;6.280;2022-11-18T07:41:27;7.80;99.90
25154;DHT22;47555;51.038;6.280;2022-11-18T07:43:54;7.90;99.90
25154;DHT22;47555;51.038;6.280;2022-11-18T07:46:34;7.90;99.90
25154;DHT22;47555;51.038;6.280;2022-11-18T07:49:03;8.00;99.90
25154;DHT22;47555;51.038;6.280;2022-11-18T07:51:32;8.10;99.90
25154;DHT22;47555;51.038;6.280;2022-11-18T07:53:59;8.10;99.90
25154;DHT22;47555;51.038;6.280;2022-11-18T07:56:25;8.20;99.90
25154;DHT22;47555;51.038;6.280;2022-11-18T07:58:52;8.20;99.90
25154;DHT22;47555;51.038;6.280;2022-11-18T08:01:20;8.30;99.90
25154;DHT22;47555;51.038;6.280;2022-11-18T08:03:46;8.30;99.90
25154;DHT22;47555;51.038;6.280;2022-11-18T08:06:14;8.30;99.90
25154;DHT22;47555;51.038;6.280;2022-11-18T08:08:41;8.40;99.90
25154;DHT22;47555;51.038;6.280;2022-11-18T08:11:09;8.50;99.90
25154;DHT22;47555;51.038;6.280;2022-11-18T08:13:36;8.50;99.90
25154;DHT22;47555;51.038;6.280;2022-11-18T08:16:02;8.50;99.90
25154;DHT22;47555;51.038;6.280;2022-11-18T08:18:30;8.60;99.90
25154;DHT22;47555;51.038;6.280;2022-11-18T08:21:01;8.60;99.90
25154;DHT22;47555;51.038;6.280;2022-11-18T08:23:27;8.70;99.90
25154;DHT22;47555;51.038;6.280;2022-11-18T08:25:52;8.80;99.90
25154;DHT22;47555;51.038;6.280;2022-11-18T08:28:18;8.90;99.90
25154;DHT22;47555;51.038;6.280;2022-11-18T08:30:43;9.20;99.90
25154;DHT22;47555;51.038;6.280;2022-11-18T08:33:09;9.30;99.90
25154;DHT22;47555;51.038;6.280;2022-11-18T08:35:35;9.50;99.90
25154;DHT22;47555;51.038;6.280;2022-11-18T08:38:00;9.70;99.90
25154;DHT22;47555;51.038;6.280;2022-11-18T08:40:26;9.80;99.90
25154;DHT22;47555;51.038;6.280;2022-11-18T08:42:51;9.90;99.90
25154;DHT22;47555;51.038;6.280;2022-11-18T08:45:17;10.10;99.90
25154;DHT22;47555;51.038;6.280;2022-11-18T08:47:42;10.30;99.90
25154;DHT22;47555;51.038;6.280;2022-11-18T08:50:10;10.50;99.90
25154;DHT22;47555;51.038;6.280;2022-11-18T08:52:35;10.70;99.90
25154;DHT22;47555;51.038;6.280;2022-11-18T08:55:02;10.80;99.90
25154;DHT22;47555;51.038;6.280;2022-11-18T08:57:27;11.10;99.90
25154;DHT22;47555;51.038;6.280;2022-11-18T08:59:53;11.30;99.90
25154;DHT22;47555;51.038;6.280;2022-11-18T09:02:21;11.50;99.90
25154;DHT22;47555;51.038;6.280;2022-11-18T09:04:48;11.70;99.90
25154;DHT22;47555;51.038;6.280;2022-11-18T09:07:13;11.90;99.90
25154;DHT22;47555;51.038;6.280;2022-11-18T09:09:39;12.10;99.90
25154;DHT22;47555;51.038;6.280;2022-11-18T09:12:05;12.20;99.90
25154;DHT22;47555;51.038;6.280;2022-11-18T09:14:31;12.30;99.90
25154;DHT22;47555;51.038;6.280;2022-11-18T09:16:56;12.40;99.90
25154;DHT22;47555;51.038;6.280;2022-11-18T09:19:22;12.40;98.30
25154;DHT22;47555;51.038;6.280;2022-11-18T09:21:47;12.40;99.70
25154;DHT22;47555;51.038;6.280;2022-11-18T09:24:13;12.50;98.70
25154;DHT22;47555;51.038;6.280;2022-11-18T09:26:38;12.60;98.90
25154;DHT22;47555;51.038;6.280;2022-11-18T09:29:04;12.60;96.90
25154;DHT22;47555;51.038;6.280;2022-11-18T09:31:30;12.70;96.30
25154;DHT22;47555;51.038;6.280;2022-11-18T09:33:58;12.80;95.40
25154;DHT22;47555;51.038;6.280;2022-11-18T09:36:24;12.90;94.50
25154;DHT22;47555;51.038;6.280;2022-11-18T09:38:51;13.10;94.40
25154;DHT22;47555;51.038;6.280;2022-11-18T09:41:37;13.40;94.60
25154;DHT22;47555;51.038;6.280;2022-11-18T09:49:31;13.40;90.30
25154;DHT22;47555;51.038;6.280;2022-11-18T09:52:05;12.90;92.90
25154;DHT22;47555;51.038;6.280;2022-11-18T09:54:35;12.50;95.10
25154;DHT22;47555;51.038;6.280;2022-11-18T09:57:02;12.20;97.10
25154;DHT22;47555;51.038;6.280;2022-11-18T09:59:31;12.10;99.90
25154;DHT22;47555;51.038;6.280;2022-11-18T10:02:06;12.20;99.90
25154;DHT22;47555;51.038;6.280;2022-11-18T10:04:39;12.50;99.90
25154;DHT22;47555;51.038;6.280;2022-11-18T10:07:19;12.70;98.30
25154;DHT22;47555;51.038;6.280;2022-11-18T10:09:47;12.90;96.10
25154;DHT22;47555;51.038;6.280;2022-11-18T10:12:41;13.00;96.00
25154;DHT22;47555;51.038;6.280;2022-11-18T10:20:55;13.00;94.60
25154;DHT22;47555;51.038;6.280;2022-11-18T10:26:05;13.00;93.80
25154;DHT22;47555;51.038;6.280;2022-11-18T10:28:30;13.00;94.70
25154;DHT22;47555;51.038;6.280;2022-11-18T10:31:07;13.00;94.20
25154;DHT22;47555;51.038;6.280;2022-11-18T10:33:34;13.00;94.90
25154;DHT22;47555;51.038;6.280;2022-11-18T10:38:41;13.10;94.30
25154;DHT22;47555;51.038;6.280;2022-11-18T10:41:12;13.10;93.60
25154;DHT22;47555;51.038;6.280;2022-11-18T10:43:52;13.00;94.00
25154;DHT22;47555;51.038;6.280;2022-11-18T10:46:29;12.80;92.90
25154;DHT22;47555;51.038;6.280;2022-11-18T10:51:34;12.20;95.80
25154;DHT22;47555;51.038;6.280;2022-11-18T10:54:07;12.00;97.10
25154;DHT22;47555;51.038;6.280;2022-11-18T10:57:07;11.80;98.00
25154;DHT22;47555;51.038;6.280;2022-11-18T10:59:46;11.70;98.70
25154;DHT22;47555;51.038;6.280;2022-11-18T11:04:47;11.40;99.90
25154;DHT22;47555;51.038;6.280;2022-11-18T11:07:29;11.30;99.90
25154;DHT22;47555;51.038;6.280;2022-11-18T11:12:43;11.10;99.90
25154;DHT22;47555;51.038;6.280;2022-11-18T11:15:21;11.10;99.90
25154;DHT22;47555;51.038;6.280;2022-11-18T11:17:53;11.00;99.90
25154;DHT22;47555;51.038;6.280;2022-11-18T11:20:40;11.00;99.90
25154;DHT22;47555;51.038;6.280;2022-11-18T11:23:08;11.10;99.90
25154;DHT22;47555;51.038;6.280;2022-11-18T11:25:52;11.10;99.90
25154;DHT22;47555;51.038;6.280;2022-11-18T11:29:23;11.10;99.90
25154;DHT22;47555;51.038;6.280;2022-11-18T11:33:58;11.20;99.90
25154;DHT22;47555;51.038;6.280;2022-11-18T11:45:18;11.10;99.90
25154;DHT22;47555;51.038;6.280;2022-11-18T11:50:55;11.10;99.90
25154;DHT22;47555;51.038;6.280;2022-11-18T11:53:59;11.10;99.90
25154;DHT22;47555;51.038;6.280;2022-11-18T11:56:39;11.10;99.90
25154;DHT22;47555;51.038;6.280;2022-11-18T12:04:57;11.40;99.90
25154;DHT22;47555;51.038;6.280;2022-11-18T12:07:29;11.50;99.90
25154;DHT22;47555;51.038;6.280;2022-11-18T12:10:01;11.50;99.90
25154;DHT22;47555;51.038;6.280;2022-11-18T12:12:51;11.50;99.90
25154;DHT22;47555;51.038;6.280;2022-11-18T12:15:43;11.60;99.90
25154;DHT22;47555;51.038;6.280;2022-11-18T12:18:43;11.70;99.90
25154;DHT22;47555;51.038;6.280;2022-11-18T12:26:56;11.70;99.90
25154;DHT22;47555;51.038;6.280;2022-11-18T12:29:25;11.70;99.90
25154;DHT22;47555;51.038;6.280;2022-11-18T12:31:53;11.80;99.90
25154;DHT22;47555;51.038;6.280;2022-11-18T12:34:38;11.80;99.90
25154;DHT22;47555;51.038;6.280;2022-11-18T12:42:47;12.10;99.90
25154;DHT22;47555;51.038;6.280;2022-11-18T12:48:26;12.20;99.90
25154;DHT22;47555;51.038;6.280;2022-11-18T12:50:53;12.20;99.90
25154;DHT22;47555;51.038;6.280;2022-11-18T12:53:38;12.10;99.90
25154;DHT22;47555;51.038;6.280;2022-11-18T12:58:46;12.00;99.90
25154;DHT22;47555;51.038;6.280;2022-11-18T13:01:15;12.00;99.90
25154;DHT22;47555;51.038;6.280;2022-11-18T13:03:41;12.10;99.90
25154;DHT22;47555;51.038;6.280;2022-11-18T13:06:27;12.10;99.90
25154;DHT22;47555;51.038;6.280;2022-11-18T13:09:01;12.20;99.90
25154;DHT22;47555;51.038;6.280;2022-11-18T13:11:30;12.20;99.90
25154;DHT22;47555;51.038;6.280;2022-11-18T13:14:20;12.20;99.90
25154;DHT22;47555;51.038;6.280;2022-11-18T13:20:35;12.10;99.90
25154;DHT22;47555;51.038;6.280;2022-11-18T13:26:10;12.00;99.90
25154;DHT22;47555;51.038;6.280;2022-11-18T13:29:02;12.00;99.90
25154;DHT22;47555;51.038;6.280;2022-11-18T13:34:22;11.90;99.90
25154;DHT22;47555;51.038;6.280;2022-11-18T13:36:47;11.90;99.90
25154;DHT22;47555;51.038;6.280;2022-11-18T13:39:32;11.90;99.90
25154;DHT22;47555;51.038;6.280;2022-11-18T13:44:28;11.90;99.90
25154;DHT22;47555;51.038;6.280;2022-11-18T13:49:42;12.10;99.90
25154;DHT22;47555;51.038;6.280;2022-11-18T13:52:17;11.90;99.90
25154;DHT22;47555;51.038;6.280;2022-11-18T13:54:43;12.00;99.90
25154;DHT22;47555;51.038;6.280;2022-11-18T13:57:16;11.90;99.90
25154;DHT22;47555;51.038;6.280;2022-11-18T13:59:44;11.90;99.90
25154;DHT22;47555;51.038;6.280;2022-11-18T14:02:11;11.90;99.90
25154;DHT22;47555;51.038;6.280;2022-11-18T14:04:48;11.90;99.90
25154;DHT22;47555;51.038;6.280;2022-11-18T14:07:27;11.90;99.90
25154;DHT22;47555;51.038;6.280;2022-11-18T14:10:02;11.90;99.90
25154;DHT22;47555;51.038;6.280;2022-11-18T14:12:30;11.90;99.90
25154;DHT22;47555;51.038;6.280;2022-11-18T14:15:21;11.90;99.90
25154;DHT22;47555;51.038;6.280;2022-11-18T14:17:52;12.00;99.90
25154;DHT22;47555;51.038;6.280;2022-11-18T14:20:18;11.90;99.90
25154;DHT22;47555;51.038;6.280;2022-11-18T14:22:53;11.90;99.90
25154;DHT22;47555;51.038;6.280;2022-11-18T14:25:26;11.90;99.90
25154;DHT22;47555;51.038;6.280;2022-11-18T14:27:57;11.80;99.90
25154;DHT22;47555;51.038;6.280;2022-11-18T14:30:37;11.80;99.90
25154;DHT22;47555;51.038;6.280;2022-11-18T14:33:23;11.70;99.90
25154;DHT22;47555;51.038;6.280;2022-11-18T14:41:02;11.70;99.90
25154;DHT22;47555;51.038;6.280;2022-11-18T14:43:29;11.70;99.90
25154;DHT22;47555;51.038;6.280;2022-11-18T14:46:04;11.70;99.90
25154;DHT22;47555;51.038;6.280;2022-11-18T14:48:31;11.60;99.90
25154;DHT22;47555;51.038;6.280;2022-11-18T14:50:57;11.60;99.90
25154;DHT22;47555;51.038;6.280;2022-11-18T14:53:22;11.50;99.90
25154;DHT22;47555;51.038;6.280;2022-11-18T14:55:50;11.50;99.90
25154;DHT22;47555;51.038;6.280;2022-11-18T14:58:16;11.40;99.90
25154;DHT22;47555;51.038;6.280;2022-11-18T15:00:46;11.40;99.90
25154;DHT22;47555;51.038;6.280;2022-11-18T15:03:12;11.40;99.90
25154;DHT22;47555;51.038;6.280;2022-11-18T15:05:38;11.30;99.90
25154;DHT22;47555;51.038;6.280;2022-11-18T15:08:05;11.30;99.90
25154;DHT22;47555;51.038;6.280;2022-11-18T15:10:30;11.30;99.90
25154;DHT22;47555;51.038;6.280;2022-11-18T15:12:56;11.20;99.90
25154;DHT22;47555;51.038;6.280;2022-11-18T15:15:22;11.20;99.90
25154;DHT22;47555;51.038;6.280;2022-11-18T15:17:48;11.20;99.90
25154;DHT22;47555;51.038;6.280;2022-11-18T15:20:17;11.20;99.90
25154;DHT22;47555;51.038;6.280;2022-11-18T15:22:43;11.20;99.90
25154;DHT22;47555;51.038;6.280;2022-11-18T15:25:09;11.10;99.90
25154;DHT22;47555;51.038;6.280;2022-11-18T15:27:35;11.10;99.90
25154;DHT22;47555;51.038;6.280;2022-11-18T15:30:00;11.10;99.90
25154;DHT22;47555;51.038;6.280;2022-11-18T15:32:26;11.10;99.90
25154;DHT22;47555;51.038;6.280;2022-11-18T15:34:51;11.00;99.90
25154;DHT22;47555;51.038;6.280;2022-11-18T15:37:17;11.00;99.90
25154;DHT22;47555;51.038;6.280;2022-11-18T15:39:42;10.90;99.90
25154;DHT22;47555;51.038;6.280;2022-11-18T15:42:09;10.80;99.90
25154;DHT22;47555;51.038;6.280;2022-11-18T15:44:34;10.80;99.90
25154;DHT22;47555;51.038;6.280;2022-11-18T15:47:00;10.80;99.90
25154;DHT22;47555;51.038;6.280;2022-11-18T15:49:26;10.80;99.90
25154;DHT22;47555;51.038;6.280;2022-11-18T15:51:52;10.70;99.90
25154;DHT22;47555;51.038;6.280;2022-11-18T15:54:17;10.70;99.90
25154;DHT22;47555;51.038;6.280;2022-11-18T15:56:43;10.70;99.90
25154;DHT22;47555;51.038;6.280;2022-11-18T15:59:11;10.70;99.90
25154;DHT22;47555;51.038;6.280;2022-11-18T16:01:39;10.60;99.90
25154;DHT22;47555;51.038;6.280;2022-11-18T16:04:07;10.60;99.90
25154;DHT22;47555;51.038;6.280;2022-11-18T16:06:33;10.60;99.90
25154;DHT22;47555;51.038;6.280;2022-11-18T16:08:59;10.60;99.90
25154;DHT22;47555;51.038;6.280;2022-11-18T16:11:25;10.50;99.90
25154;DHT22;47555;51.038;6.280;2022-11-18T16:14:11;10.50;99.90
25154;DHT22;47555;51.038;6.280;2022-11-18T16:16:38;10.50;99.90
25154;DHT22;47555;51.038;6.280;2022-11-18T16:19:06;10.40;99.90
25154;DHT22;47555;51.038;6.280;2022-11-18T16:21:34;10.40;99.90
25154;DHT22;47555;51.038;6.280;2022-11-18T16:24:01;10.40;99.90
25154;DHT22;47555;51.038;6.280;2022-11-18T16:26:28;10.40;99.90
25154;DHT22;47555;51.038;6.280;2022-11-18T16:28:55;10.40;99.90
25154;DHT22;47555;51.038;6.280;2022-11-18T16:31:21;10.30;99.90
25154;DHT22;47555;51.038;6.280;2022-11-18T16:34:06;10.30;99.90
25154;DHT22;47555;51.038;6.280;2022-11-18T16:36:33;10.30;99.90
25154;DHT22;47555;51.038;6.280;2022-11-18T16:39:36;10.20;99.90
25154;DHT22;47555;51.038;6.280;2022-11-18T16:41:59;10.20;99.90
25154;DHT22;47555;51.038;6.280;2022-11-18T16:44:24;10.20;99.90
25154;DHT22;47555;51.038;6.280;2022-11-18T16:46:52;10.30;99.90
25154;DHT22;47555;51.038;6.280;2022-11-18T16:49:20;10.20;99.90
25154;DHT22;47555;51.038;6.280;2022-11-18T16:51:47;10.10;99.90
25154;DHT22;47555;51.038;6.280;2022-11-18T16:54:14;10.10;99.90
25154;DHT22;47555;51.038;6.280;2022-11-18T16:56:44;10.10;99.90
25154;DHT22;47555;51.038;6.280;2022-11-18T16:59:15;10.10;99.90
25154;DHT22;47555;51.038;6.280;2022-11-18T17:01:41;10.10;99.90
25154;DHT22;47555;51.038;6.280;2022-11-18T17:04:07;10.10;99.90
25154;DHT22;47555;51.038;6.280;2022-11-18T17:06:33;10.00;99.90
25154;DHT22;47555;51.038;6.280;2022-11-18T17:08:59;10.00;99.90
25154;DHT22;47555;51.038;6.280;2022-11-18T17:11:25;9.80;99.90
25154;DHT22;47555;51.038;6.280;2022-11-18T17:13:51;9.90;99.90
25154;DHT22;47555;51.038;6.280;2022-11-18T17:16:19;9.80;99.90
25154;DHT22;47555;51.038;6.280;2022-11-18T17:18:44;9.80;99.90
25154;DHT22;47555;51.038;6.280;2022-11-18T17:21:13;9.70;99.90
25154;DHT22;47555;51.038;6.280;2022-11-18T17:23:39;9.60;99.90
25154;DHT22;47555;51.038;6.280;2022-11-18T17:26:06;9.60;99.90
25154;DHT22;47555;51.038;6.280;2022-11-18T17:28:33;9.50;99.90
25154;DHT22;47555;51.038;6.280;2022-11-18T17:31:14;9.50;99.90
25154;DHT22;47555;51.038;6.280;2022-11-18T17:33:40;9.50;99.90
25154;DHT22;47555;51.038;6.280;2022-11-18T17:36:09;9.50;99.90
25154;DHT22;47555;51.038;6.280;2022-11-18T17:38:36;9.40;99.90
25154;DHT22;47555;51.038;6.280;2022-11-18T17:41:03;9.40;99.90